Página principal
METAR-TAF:

METAR-TAF

Aeroportos :

Aeroporto Humberto Delgado

Lisboa, Portugal

latitude: 38-46N, longitude: 009-08W, altura: 114 m

Observação actual do tempo

O boletim foi feito há 35 minutos, às 16:00 UTC
Vento 9 kt de oes-noroeste
Temperatura 23°C
Humidade 61%
Pressão 1015 hPa
Visibilidade 10 km ou mais
sem nuvens abaixo de 1500 metros e sem cumulonimbus

METAR: LPPT 281600Z 30009KT CAVOK 23/15 Q1015

Hora: 17:35 (16:35 UTC)

Previsão

O boletim foi feito há 5 horas e 35 minutos, às 11:00 UTC
Previsão válida de 28 às 12 UTC a 29 às 18 UTC
Vento 5 kt com direcção variável
Visibilidade 10 km ou mais
sem nuvens abaixo de 1500 metros e sem cumulonimbus
Tornando-se
de 28 às 14 UTC a 28 às 16 UTC
Vento 10 kt de nor-noroeste
Tornando-se
de 29 às 06 UTC a 29 às 09 UTC
Vento 5 kt de nor-nordeste
Tornando-se
de 29 às 15 UTC a 29 às 17 UTC
Vento 10 kt de nor-noroeste

TAF: LPPT 281100Z 2812/2918 VRB05KT CAVOK BECMG 2814/2816 34010KT BECMG 2906/2909 03005KT BECMG 2915/2917 34010KT

Observações e previsões do tempo de mais de 4000 aeroportos (mensagens METAR e TAF).

As estações disponíveis são os pontos amarelos e vermelhos sobre o mapa.

Mova o rato sobre o mapa para ver o nome da estação.

Depois clique no ponto para visualizar as observações e previsões meteorológicas.

Para alterar o mapa : clique nos botões verdes com uma cruz preta para aumentar o zoom; no botão verde com uma pitada de zoom; ou nas setas verdes para mapas adjacentes.


METAR-TAF: